createdAt,value
2022-10-19T00:01:19.624Z,15.53
2022-10-19T00:03:51.332Z,14.30
2022-10-19T00:06:25.451Z,12.30
2022-10-19T00:08:56.366Z,11.40
2022-10-19T00:11:25.766Z,16.87
2022-10-19T00:13:56.791Z,11.57
2022-10-19T00:16:27.018Z,9.97
2022-10-19T00:18:59.105Z,20.20
2022-10-19T00:21:28.044Z,12.80
2022-10-19T00:23:58.270Z,12.93
2022-10-19T00:26:27.571Z,14.37
2022-10-19T00:28:57.091Z,8.53
2022-10-19T00:31:26.258Z,9.70
2022-10-19T00:33:56.962Z,10.60
2022-10-19T00:36:27.762Z,8.20
2022-10-19T00:38:58.783Z,14.77
2022-10-19T00:41:29.913Z,8.00
2022-10-19T00:44:00.340Z,10.23
2022-10-19T00:46:31.034Z,10.27
2022-10-19T00:49:02.146Z,15.33
2022-10-19T00:51:32.620Z,11.10
2022-10-19T00:54:05.026Z,13.97
2022-10-19T00:56:34.564Z,11.30
2022-10-19T00:59:04.366Z,15.90
2022-10-19T01:01:34.135Z,8.90
2022-10-19T01:04:03.103Z,26.97
2022-10-19T01:06:32.285Z,17.47
2022-10-19T01:09:00.903Z,17.33
2022-10-19T01:11:41.245Z,12.97
2022-10-19T01:14:24.916Z,16.93
2022-10-19T01:16:59.779Z,16.60
2022-10-19T01:19:46.147Z,18.73
2022-10-19T01:22:22.958Z,20.90
2022-10-19T01:25:01.085Z,17.23
2022-10-19T01:27:43.344Z,18.03
2022-10-19T01:30:18.155Z,21.97
2022-10-19T01:32:56.135Z,37.90
2022-10-19T01:35:29.086Z,26.97
2022-10-19T01:38:06.134Z,21.93
2022-10-19T01:40:41.527Z,21.97
2022-10-19T01:43:13.879Z,29.77
2022-10-19T01:45:46.804Z,24.80
2022-10-19T01:48:17.169Z,21.33
2022-10-19T01:50:49.237Z,24.53
2022-10-19T01:53:19.253Z,26.73
2022-10-19T01:55:50.426Z,24.73
2022-10-19T01:58:22.497Z,31.27
2022-10-19T02:00:54.269Z,33.77
2022-10-19T02:03:23.775Z,26.07
2022-10-19T02:05:53.884Z,38.77
2022-10-19T02:08:26.156Z,47.70
2022-10-19T02:10:54.976Z,27.73
2022-10-19T02:13:24.421Z,43.77
2022-10-19T02:15:56.324Z,25.27
2022-10-19T02:18:27.952Z,31.67
2022-10-19T02:20:56.941Z,28.87
2022-10-19T02:23:26.717Z,33.77
2022-10-19T02:25:55.707Z,37.97
2022-10-19T02:31:00.416Z,35.23
2022-10-19T02:33:30.153Z,29.07
2022-10-19T02:35:58.948Z,26.00
2022-10-19T02:38:27.953Z,30.77
2022-10-19T02:41:01.940Z,40.00
2022-10-19T02:43:31.425Z,43.43
2022-10-19T02:46:04.159Z,36.17
2022-10-19T02:48:34.728Z,27.30
2022-10-19T02:51:03.491Z,24.20
2022-10-19T02:53:32.139Z,26.47
2022-10-19T02:56:00.752Z,41.50
2022-10-19T02:58:29.334Z,34.30
2022-10-19T03:00:57.973Z,36.73
2022-10-19T03:03:27.906Z,26.43
2022-10-19T03:05:56.523Z,25.43
2022-10-19T03:08:25.274Z,32.13
2022-10-19T03:10:53.838Z,31.93
2022-10-19T03:13:22.492Z,28.00
2022-10-19T03:15:51.162Z,22.90
2022-10-19T03:18:19.757Z,31.97
2022-10-19T03:20:49.747Z,22.90
2022-10-19T03:23:18.453Z,32.17
2022-10-19T03:25:47.046Z,36.67
2022-10-19T03:28:15.610Z,28.40
2022-10-19T03:30:44.168Z,28.40
2022-10-19T03:33:12.832Z,26.63
2022-10-19T03:35:41.453Z,23.43
2022-10-19T03:38:11.408Z,23.87
2022-10-19T03:40:40.134Z,26.27
2022-10-19T03:43:08.799Z,27.30
2022-10-19T03:45:37.435Z,27.40
2022-10-19T03:48:06.503Z,22.93
2022-10-19T03:50:35.091Z,25.93
2022-10-19T03:55:38.615Z,23.73
2022-10-19T03:58:07.232Z,32.43
2022-10-19T04:00:35.895Z,21.13
2022-10-19T04:03:04.733Z,24.17
2022-10-19T04:05:33.380Z,36.60
2022-10-19T04:08:01.966Z,28.70
2022-10-19T04:10:32.247Z,17.10
2022-10-19T04:13:02.219Z,16.87
2022-10-19T04:15:30.829Z,19.93
2022-10-19T04:17:59.464Z,20.10
2022-10-19T04:20:28.065Z,20.23
2022-10-19T04:22:56.687Z,29.33
2022-10-19T04:25:25.324Z,22.37
2022-10-19T04:27:53.956Z,19.63
2022-10-19T04:30:23.928Z,26.00
2022-10-19T04:32:52.579Z,20.13
2022-10-19T04:35:21.214Z,24.20
2022-10-19T04:37:49.774Z,20.20
2022-10-19T04:40:18.566Z,19.00
2022-10-19T04:42:47.156Z,22.83
2022-10-19T04:45:19.178Z,20.97
2022-10-19T04:47:49.182Z,21.80
2022-10-19T04:50:20.268Z,19.37
2022-10-19T04:52:48.924Z,22.00
2022-10-19T04:55:17.553Z,18.30
2022-10-19T04:57:46.306Z,17.77
2022-10-19T05:00:15.828Z,19.63
2022-10-19T05:02:45.631Z,17.23
2022-10-19T05:05:16.539Z,15.43
2022-10-19T05:07:45.353Z,16.10
2022-10-19T05:10:14.331Z,17.77
2022-10-19T05:12:42.941Z,25.83
2022-10-19T05:15:12.174Z,18.63
2022-10-19T05:17:40.761Z,17.83
2022-10-19T05:20:11.247Z,18.00
2022-10-19T05:22:41.426Z,20.00
2022-10-19T05:25:10.487Z,18.57
2022-10-19T05:27:39.117Z,19.02
2022-10-19T05:30:09.073Z,16.77
2022-10-19T05:32:37.720Z,19.67
2022-10-19T05:35:07.821Z,19.50
2022-10-19T05:37:36.715Z,18.03
2022-10-19T05:40:08.660Z,16.53
2022-10-19T05:42:37.280Z,19.23
2022-10-19T05:45:07.001Z,16.97
2022-10-19T05:47:36.280Z,17.90
2022-10-19T05:50:05.830Z,28.07
2022-10-19T05:52:35.754Z,16.13
2022-10-19T05:55:04.897Z,16.70
2022-10-19T05:57:35.159Z,13.10
2022-10-19T06:00:05.262Z,12.37
2022-10-19T06:02:33.872Z,19.13
2022-10-19T06:05:02.623Z,15.43
2022-10-19T06:07:31.313Z,17.67
2022-10-19T06:10:00.327Z,17.40
2022-10-19T06:12:28.961Z,21.83
2022-10-19T06:14:58.959Z,26.23
2022-10-19T06:17:29.740Z,20.20
2022-10-19T06:19:58.335Z,29.97
2022-10-19T06:22:26.923Z,33.90
2022-10-19T06:24:56.345Z,27.97
2022-10-19T06:27:25.158Z,29.00
2022-10-19T06:29:53.821Z,23.07
2022-10-19T06:32:23.938Z,31.60
2022-10-19T06:34:56.473Z,22.70
2022-10-19T06:37:25.415Z,26.00
2022-10-19T06:39:54.092Z,24.77
2022-10-19T06:42:22.868Z,28.73
2022-10-19T06:44:51.548Z,26.30
2022-10-19T06:47:20.177Z,21.80
2022-10-19T06:49:50.133Z,24.63
2022-10-19T06:52:18.897Z,26.90
2022-10-19T06:54:47.486Z,22.90
2022-10-19T06:57:16.144Z,17.33
2022-10-19T06:59:44.753Z,17.10
2022-10-19T07:02:13.776Z,15.87
2022-10-19T07:04:42.423Z,15.13
2022-10-19T07:07:12.436Z,15.00
2022-10-19T07:09:41.577Z,19.07
2022-10-19T07:12:11.206Z,16.33
2022-10-19T07:14:39.972Z,16.83
2022-10-19T07:17:09.427Z,18.60
2022-10-19T07:19:38.510Z,17.87
2022-10-19T07:22:07.127Z,16.23
2022-10-19T07:24:37.049Z,15.10
2022-10-19T07:27:07.784Z,17.90
2022-10-19T07:29:36.390Z,16.10
2022-10-19T07:32:05.157Z,17.90
2022-10-19T07:34:34.441Z,15.07
2022-10-19T07:37:03.446Z,13.20
2022-10-19T07:39:32.253Z,13.33
2022-10-19T07:42:02.196Z,14.37
2022-10-19T07:44:30.802Z,14.50
2022-10-19T07:46:59.815Z,16.80
2022-10-19T07:49:28.752Z,13.60
2022-10-19T07:51:57.403Z,15.03
2022-10-19T07:54:27.541Z,16.10
2022-10-19T07:56:56.149Z,16.00
2022-10-19T07:59:26.218Z,15.47
2022-10-19T08:01:55.966Z,20.07
2022-10-19T08:04:55.987Z,14.60
2022-10-19T08:07:13.324Z,14.10
2022-10-19T08:09:53.235Z,14.13
2022-10-19T08:12:24.849Z,12.10
2022-10-19T08:14:55.897Z,17.60
2022-10-19T08:17:24.517Z,20.53
2022-10-19T08:19:53.240Z,14.83
2022-10-19T08:22:21.904Z,20.23
2022-10-19T08:24:50.569Z,16.50
2022-10-19T08:27:19.201Z,19.40
2022-10-19T08:29:47.863Z,17.00
2022-10-19T08:32:18.004Z,21.10
2022-10-19T08:34:46.645Z,13.03
2022-10-19T08:37:39.611Z,12.53
2022-10-19T08:40:04.024Z,13.00
2022-10-19T08:42:42.495Z,15.97
2022-10-19T08:45:34.553Z,13.80
2022-10-19T08:48:19.055Z,16.70
2022-10-19T08:50:49.121Z,15.17
2022-10-19T08:53:20.333Z,14.03
2022-10-19T08:55:54.811Z,19.67
2022-10-19T08:58:41.774Z,12.30
2022-10-19T09:01:14.728Z,13.77
2022-10-19T09:04:00.358Z,14.80
2022-10-19T09:06:33.183Z,14.83
2022-10-19T09:09:02.171Z,17.20
2022-10-19T09:11:32.545Z,27.00
2022-10-19T09:14:06.383Z,18.00
2022-10-19T09:16:35.979Z,15.60
2022-10-19T09:19:13.809Z,11.33
2022-10-19T09:21:47.692Z,13.80
2022-10-19T09:24:28.626Z,13.10
2022-10-19T09:26:58.636Z,11.20
2022-10-19T09:29:31.026Z,9.07
2022-10-19T09:32:02.182Z,8.63
2022-10-19T09:34:35.055Z,11.60
2022-10-19T09:37:04.093Z,14.93
2022-10-19T09:39:32.854Z,7.07
2022-10-19T09:42:09.088Z,6.10
2022-10-19T09:44:37.778Z,8.50
2022-10-19T09:47:18.800Z,17.67
2022-10-19T09:49:49.848Z,9.43
2022-10-19T09:52:26.930Z,7.60
2022-10-19T09:55:01.206Z,8.57
2022-10-19T09:57:30.334Z,6.40
2022-10-19T09:59:59.129Z,12.23
2022-10-19T10:02:33.226Z,12.13
2022-10-19T10:05:08.276Z,12.97
2022-10-19T10:07:39.002Z,10.70
2022-10-19T10:10:12.273Z,12.53
2022-10-19T10:12:41.956Z,8.30
2022-10-19T10:15:17.650Z,6.87
2022-10-19T10:17:47.753Z,4.27
2022-10-19T10:20:24.728Z,8.07
2022-10-19T10:22:57.497Z,8.47
2022-10-19T10:25:29.326Z,8.43
2022-10-19T10:28:01.511Z,5.23
2022-10-19T10:30:34.460Z,3.60
2022-10-19T10:33:13.215Z,3.67
2022-10-19T10:35:53.714Z,5.27
2022-10-19T10:38:25.084Z,3.83
2022-10-19T10:40:55.777Z,4.53
2022-10-19T10:43:32.039Z,3.93
2022-10-19T10:46:03.112Z,4.70
2022-10-19T10:48:34.418Z,4.10
2022-10-19T10:51:09.645Z,3.40
2022-10-19T10:53:40.489Z,3.60
2022-10-19T10:56:23.590Z,3.67
2022-10-19T10:58:57.502Z,3.90
2022-10-19T11:01:30.304Z,4.30
2022-10-19T11:04:04.638Z,5.53
2022-10-19T11:06:39.515Z,5.87
2022-10-19T11:09:15.955Z,3.87
2022-10-19T11:11:47.329Z,4.07
2022-10-19T11:14:33.855Z,4.23
2022-10-19T11:17:06.756Z,3.93
2022-10-19T11:19:40.679Z,5.40
2022-10-19T11:22:23.613Z,4.60
2022-10-19T11:25:16.634Z,7.83
2022-10-19T11:27:50.538Z,4.80
2022-10-19T11:30:21.596Z,5.80
2022-10-19T11:32:57.483Z,7.60
2022-10-19T11:35:50.281Z,4.60
2022-10-19T11:38:38.731Z,5.03
2022-10-19T11:41:18.667Z,3.83
2022-10-19T11:43:58.357Z,6.37
2022-10-19T11:46:32.056Z,6.33
2022-10-19T11:49:08.996Z,5.00
2022-10-19T11:51:40.840Z,5.70
2022-10-19T11:54:26.209Z,5.60
2022-10-19T11:57:03.996Z,4.90
2022-10-19T11:59:41.698Z,4.33
2022-10-19T12:02:22.629Z,5.93
2022-10-19T12:04:54.518Z,4.07
2022-10-19T12:07:45.517Z,6.13
2022-10-19T12:10:22.384Z,8.00
2022-10-19T12:12:53.120Z,10.33
2022-10-19T12:15:24.936Z,4.03
2022-10-19T12:17:55.826Z,6.73
2022-10-19T12:20:32.593Z,6.30
2022-10-19T12:23:03.389Z,4.40
2022-10-19T12:25:33.945Z,4.23
2022-10-19T12:28:04.213Z,6.33
2022-10-19T12:30:34.367Z,4.03
2022-10-19T12:33:08.831Z,4.03
2022-10-19T12:35:54.756Z,5.97
2022-10-19T12:38:28.909Z,6.23
2022-10-19T12:41:05.095Z,4.83
2022-10-19T12:43:40.715Z,3.30
2022-10-19T12:46:16.154Z,4.13
2022-10-19T12:48:44.868Z,3.00
2022-10-19T12:51:19.411Z,6.20
2022-10-19T12:53:49.825Z,7.00
2022-10-19T12:56:24.405Z,6.07
2022-10-19T12:58:56.840Z,4.43
2022-10-19T13:01:27.945Z,3.60
2022-10-19T13:04:09.885Z,3.27
2022-10-19T13:06:40.757Z,3.67
2022-10-19T13:09:10.904Z,3.67
2022-10-19T13:12:27.403Z,3.13
2022-10-19T13:14:57.203Z,3.37
2022-10-19T13:17:44.048Z,5.07
2022-10-19T13:20:52.632Z,5.70
2022-10-19T13:23:42.835Z,5.93
2022-10-19T13:26:33.879Z,5.47
2022-10-19T13:29:04.208Z,2.70
2022-10-19T13:31:34.356Z,4.50
2022-10-19T13:34:11.393Z,4.57
2022-10-19T13:36:40.252Z,3.00
2022-10-19T13:39:16.530Z,2.97
2022-10-19T13:41:48.508Z,4.47
2022-10-19T13:44:24.892Z,3.20
2022-10-19T13:47:09.129Z,3.03
2022-10-19T13:49:42.401Z,2.40
2022-10-19T13:52:45.159Z,5.50
2022-10-19T13:55:55.973Z,6.63
2022-10-19T13:58:35.582Z,2.87
2022-10-19T14:01:14.184Z,3.30
2022-10-19T14:03:58.716Z,3.90
2022-10-19T14:06:29.089Z,12.93
2022-10-19T14:09:18.780Z,6.40
2022-10-19T14:11:48.730Z,3.17
2022-10-19T14:14:19.538Z,3.00
2022-10-19T14:16:58.328Z,7.83
2022-10-19T14:19:34.073Z,5.70
2022-10-19T14:22:19.237Z,4.30
2022-10-19T14:24:48.017Z,7.33
2022-10-19T14:27:20.782Z,5.63
2022-10-19T14:29:50.973Z,4.40
2022-10-19T14:32:24.920Z,5.10
2022-10-19T14:34:54.609Z,4.20
2022-10-19T14:37:24.914Z,3.57
2022-10-19T14:40:02.988Z,6.67
2022-10-19T14:42:40.424Z,13.03
2022-10-19T14:45:18.237Z,7.60
2022-10-19T14:47:56.678Z,11.97
2022-10-19T14:50:29.905Z,13.23
2022-10-19T14:53:03.061Z,13.67
2022-10-19T14:55:34.950Z,13.83
2022-10-19T14:58:03.943Z,8.53
2022-10-19T15:00:33.899Z,4.47
2022-10-19T15:03:05.940Z,4.80
2022-10-19T15:05:37.749Z,6.40
2022-10-19T15:08:10.356Z,16.60
2022-10-19T15:10:43.233Z,53.47
2022-10-19T15:13:21.016Z,18.43
2022-10-19T15:15:52.024Z,4.33
2022-10-19T15:18:43.884Z,8.90
2022-10-19T15:21:15.129Z,13.37
2022-10-19T15:23:46.723Z,9.80
2022-10-19T15:26:18.929Z,8.03
2022-10-19T15:28:48.339Z,9.50
2022-10-19T15:31:19.877Z,5.20
2022-10-19T15:33:52.339Z,7.03
2022-10-19T15:36:22.288Z,6.90
2022-10-19T15:39:17.456Z,10.50
2022-10-19T15:41:49.996Z,3.73
2022-10-19T15:44:33.630Z,6.37
2022-10-19T15:47:20.832Z,7.90
2022-10-19T15:50:03.804Z,6.80
2022-10-19T15:52:34.136Z,7.53
2022-10-19T15:55:02.880Z,8.10
2022-10-19T15:57:34.149Z,5.60
2022-10-19T16:00:12.869Z,6.23
2022-10-19T16:02:41.771Z,8.63
2022-10-19T16:05:11.987Z,6.10
2022-10-19T16:07:41.633Z,5.83
2022-10-19T16:10:19.072Z,9.77
2022-10-19T16:12:47.909Z,4.77
2022-10-19T16:15:22.211Z,6.77
2022-10-19T16:17:53.628Z,8.37
2022-10-19T16:20:24.536Z,6.00
2022-10-19T16:22:54.209Z,4.97
2022-10-19T16:25:23.019Z,6.10
2022-10-19T16:27:51.737Z,5.77
2022-10-19T16:30:22.832Z,6.63
2022-10-19T16:32:51.463Z,8.20
2022-10-19T16:35:20.043Z,8.00
2022-10-19T16:37:50.035Z,5.27
2022-10-19T16:40:18.631Z,7.67
2022-10-19T16:42:47.254Z,6.40
2022-10-19T16:45:16.167Z,29.10
2022-10-19T16:47:45.328Z,10.90
2022-10-19T16:50:14.105Z,9.60
2022-10-19T16:52:42.769Z,14.53
2022-10-19T16:55:12.814Z,6.43
2022-10-19T16:57:41.951Z,7.13
2022-10-19T17:00:11.912Z,8.07
2022-10-19T17:02:43.070Z,13.17
2022-10-19T17:05:14.597Z,8.80
2022-10-19T17:07:43.288Z,6.40
2022-10-19T17:10:13.379Z,7.20
2022-10-19T17:12:42.097Z,12.67
2022-10-19T17:18:01.843Z,11.03
2022-10-19T17:20:30.672Z,8.57
2022-10-19T17:22:59.374Z,9.20
2022-10-19T17:25:29.359Z,8.33
2022-10-19T17:27:58.066Z,13.03
2022-10-19T17:30:27.008Z,12.43
2022-10-19T17:32:55.840Z,13.50
2022-10-19T17:35:24.853Z,10.73
2022-10-19T17:37:53.634Z,7.77
2022-10-19T17:40:22.581Z,9.03
2022-10-19T17:42:52.714Z,10.30
2022-10-19T17:45:21.431Z,13.03
2022-10-19T17:47:50.095Z,9.00
2022-10-19T17:50:18.827Z,11.30
2022-10-19T17:52:47.594Z,9.37
2022-10-19T17:55:16.486Z,11.90
2022-10-19T17:57:45.288Z,10.95
2022-10-19T18:00:16.080Z,13.77
2022-10-19T18:02:45.870Z,9.50
2022-10-19T18:05:14.569Z,10.13
2022-10-19T18:07:44.638Z,11.07
2022-10-19T18:10:14.456Z,13.17
2022-10-19T18:12:43.130Z,9.20
2022-10-19T18:15:11.867Z,11.20
2022-10-19T18:17:41.944Z,9.40
2022-10-19T18:20:11.823Z,8.87
2022-10-19T18:22:40.451Z,8.30
2022-10-19T18:25:09.758Z,12.73
2022-10-19T18:27:38.419Z,10.30
2022-10-19T18:30:09.202Z,13.53
2022-10-19T18:32:38.092Z,10.67
2022-10-19T18:35:10.581Z,12.37
2022-10-19T18:37:39.213Z,11.70
2022-10-19T18:40:10.362Z,14.00
2022-10-19T18:42:39.285Z,13.87
2022-10-19T18:45:13.185Z,12.17
2022-10-19T18:47:50.075Z,16.63
2022-10-19T18:50:22.618Z,14.40
2022-10-19T18:52:51.314Z,10.23
2022-10-19T18:55:20.053Z,12.10
2022-10-19T18:57:48.812Z,10.93
2022-10-19T19:00:17.716Z,10.90
2022-10-19T19:02:47.384Z,14.10
2022-10-19T19:05:16.382Z,10.77
2022-10-19T19:07:46.465Z,15.97
2022-10-19T19:10:15.259Z,11.60
2022-10-19T19:12:45.227Z,12.37
2022-10-19T19:15:16.996Z,13.50
2022-10-19T19:18:07.772Z,9.50
2022-10-19T19:20:36.683Z,18.60
2022-10-19T19:23:06.757Z,12.83
2022-10-19T19:25:35.427Z,13.27
2022-10-19T19:28:04.225Z,9.47
2022-10-19T19:30:32.892Z,9.23
2022-10-19T19:33:02.957Z,8.90
2022-10-19T19:35:31.798Z,7.53
2022-10-19T19:38:00.535Z,7.10
2022-10-19T19:40:30.874Z,9.33
2022-10-19T19:42:59.615Z,12.20
2022-10-19T19:45:28.297Z,9.43
2022-10-19T19:47:56.974Z,11.90
2022-10-19T19:50:25.767Z,14.23
2022-10-19T19:52:54.513Z,24.30
2022-10-19T19:55:23.117Z,13.33
2022-10-19T19:57:54.318Z,16.50
2022-10-19T20:00:23.801Z,18.23
2022-10-19T20:02:53.262Z,16.60
2022-10-19T20:05:22.554Z,15.07
2022-10-19T20:07:51.642Z,17.43
2022-10-19T20:10:20.460Z,12.20
2022-10-19T20:12:49.239Z,10.43
2022-10-19T20:15:20.527Z,21.63
2022-10-19T20:17:49.304Z,12.40
2022-10-19T20:20:18.964Z,14.13
2022-10-19T20:22:52.118Z,13.70
2022-10-19T20:25:21.083Z,11.03
2022-10-19T20:27:49.840Z,10.30
2022-10-19T20:30:20.049Z,17.97
2022-10-19T20:32:48.721Z,13.20
2022-10-19T20:35:17.519Z,15.00
2022-10-19T20:37:49.384Z,10.57
2022-10-19T20:40:18.720Z,9.97
2022-10-19T20:42:48.340Z,14.17
2022-10-19T20:45:17.147Z,12.63
2022-10-19T20:47:47.203Z,9.57
2022-10-19T20:50:18.091Z,21.00
2022-10-19T20:52:49.572Z,14.17
2022-10-19T20:55:20.265Z,12.53
2022-10-19T20:57:48.912Z,16.10
2022-10-19T21:00:18.051Z,22.43
2022-10-19T21:02:48.197Z,13.97
2022-10-19T21:05:17.093Z,24.80
2022-10-19T21:07:45.799Z,96.03
2022-10-19T21:10:14.454Z,82.00
2022-10-19T21:12:43.110Z,35.93
2022-10-19T21:15:12.341Z,32.33
2022-10-19T21:17:41.029Z,33.67
2022-10-19T21:20:11.841Z,21.40
2022-10-19T21:22:41.536Z,19.27
2022-10-19T21:25:11.593Z,20.93
2022-10-19T21:27:40.354Z,19.70
2022-10-19T21:30:10.027Z,16.20
2022-10-19T21:32:38.675Z,16.37
2022-10-19T21:35:07.964Z,16.90
2022-10-19T21:37:38.184Z,14.50
2022-10-19T21:40:08.393Z,13.87
2022-10-19T21:42:37.080Z,14.83
2022-10-19T21:45:28.659Z,14.17
2022-10-19T21:47:55.287Z,11.10
2022-10-19T21:50:23.931Z,11.10
2022-10-19T21:52:54.014Z,12.20
2022-10-19T21:55:24.723Z,11.03
2022-10-19T21:57:53.349Z,9.20
2022-10-19T22:00:22.049Z,7.93
2022-10-19T22:02:50.725Z,8.90
2022-10-19T22:05:19.472Z,9.20
2022-10-19T22:07:48.189Z,12.43
2022-10-19T22:10:18.427Z,10.63
2022-10-19T22:12:47.166Z,12.23
2022-10-19T22:15:15.888Z,9.53
2022-10-19T22:17:44.731Z,12.13
2022-10-19T22:20:13.453Z,10.70
2022-10-19T22:22:42.115Z,13.63
2022-10-19T22:25:10.815Z,11.87
2022-10-19T22:27:40.828Z,13.50
2022-10-19T22:30:12.107Z,13.05
2022-10-19T22:32:40.852Z,12.30
2022-10-19T22:35:09.989Z,12.87
2022-10-19T22:37:38.646Z,15.60
2022-10-19T22:40:08.310Z,13.57
2022-10-19T22:42:37.534Z,16.57
2022-10-19T22:45:09.278Z,15.90
2022-10-19T22:47:37.932Z,12.70
2022-10-19T22:50:09.459Z,13.27
2022-10-19T22:52:38.688Z,11.97
2022-10-19T22:55:08.082Z,13.30
2022-10-19T22:57:36.731Z,15.80
2022-10-19T23:00:06.151Z,13.83
2022-10-19T23:02:36.349Z,11.40
2022-10-19T23:05:05.560Z,12.00
2022-10-19T23:07:34.476Z,15.10
2022-10-19T23:10:03.233Z,15.43
2022-10-19T23:12:31.965Z,13.33
2022-10-19T23:15:00.611Z,10.83
2022-10-19T23:17:29.211Z,14.37
2022-10-19T23:19:59.231Z,24.37
2022-10-19T23:22:27.895Z,13.70
2022-10-19T23:24:56.520Z,15.77
2022-10-19T23:27:25.142Z,11.10
2022-10-19T23:29:53.819Z,11.20
2022-10-19T23:32:22.582Z,13.80
2022-10-19T23:34:51.188Z,14.50
2022-10-19T23:37:21.455Z,9.23
2022-10-19T23:39:50.138Z,13.83
2022-10-19T23:42:18.881Z,11.00
2022-10-19T23:44:47.527Z,10.97
2022-10-19T23:47:16.169Z,12.73
2022-10-19T23:49:44.752Z,17.20
2022-10-19T23:52:13.825Z,11.67
2022-10-19T23:54:43.829Z,11.40
2022-10-19T23:57:12.464Z,10.30
2022-10-19T23:59:41.108Z,11.40
